Terminal Aerodrome Forecast
Issued by NWS Austin/San Antonio, TX

Home | Current Version | Previous Version | Text Only | Print | Product List | Glossary On
Versions: 1 2 3 4 5 6 7 8 9 10 11 12 13 14 15 16 17 18 19 20 21 22 23 24 25 26 27 28
214
FTUS44 KEWX 290932 AAC
TAFSAT
TAF AMD
KSAT 290932Z 2910/3012 VRB05KT P6SM SCT070 BKN100
     FM291600 28009G17KT P6SM SCT250=

USA.gov is the U.S. government's official web portal to all federal, state and local government web resources and services.